sensor_id;sensor_type;location;lat;lon;timestamp;P1;durP1;ratioP1;P2;durP2;ratioP2
28483;SDS011;15704;48.834;8.736;2023-07-09T00:01:14;5.72;;;3.13;;
28483;SDS011;15704;48.834;8.736;2023-07-09T00:03:44;8.02;;;3.38;;
28483;SDS011;15704;48.834;8.736;2023-07-09T00:06:14;7.28;;;3.40;;
28483;SDS011;15704;48.834;8.736;2023-07-09T00:08:43;6.90;;;3.40;;
28483;SDS011;15704;48.834;8.736;2023-07-09T00:11:12;9.95;;;3.83;;
28483;SDS011;15704;48.834;8.736;2023-07-09T00:13:40;5.15;;;2.97;;
28483;SDS011;15704;48.834;8.736;2023-07-09T00:16:14;5.32;;;3.28;;
28483;SDS011;15704;48.834;8.736;2023-07-09T00:18:50;7.70;;;3.20;;
28483;SDS011;15704;48.834;8.736;2023-07-09T00:21:17;8.15;;;3.83;;
28483;SDS011;15704;48.834;8.736;2023-07-09T00:23:46;9.20;;;2.97;;
28483;SDS011;15704;48.834;8.736;2023-07-09T00:26:17;13.40;;;3.80;;
28483;SDS011;15704;48.834;8.736;2023-07-09T00:28:46;8.73;;;4.10;;
28483;SDS011;15704;48.834;8.736;2023-07-09T00:31:14;8.30;;;3.45;;
28483;SDS011;15704;48.834;8.736;2023-07-09T00:33:42;8.10;;;3.63;;
28483;SDS011;15704;48.834;8.736;2023-07-09T00:36:14;9.75;;;3.47;;
28483;SDS011;15704;48.834;8.736;2023-07-09T00:38:44;6.55;;;3.40;;
28483;SDS011;15704;48.834;8.736;2023-07-09T00:41:15;9.93;;;3.22;;
28483;SDS011;15704;48.834;8.736;2023-07-09T00:48:47;9.70;;;3.30;;
28483;SDS011;15704;48.834;8.736;2023-07-09T00:51:20;5.30;;;3.22;;
28483;SDS011;15704;48.834;8.736;2023-07-09T00:53:49;6.75;;;3.45;;
28483;SDS011;15704;48.834;8.736;2023-07-09T00:59:04;10.20;;;3.67;;
28483;SDS011;15704;48.834;8.736;2023-07-09T01:01:34;6.85;;;3.60;;
28483;SDS011;15704;48.834;8.736;2023-07-09T01:04:02;8.45;;;3.95;;
28483;SDS011;15704;48.834;8.736;2023-07-09T01:06:31;6.07;;;3.33;;
28483;SDS011;15704;48.834;8.736;2023-07-09T01:09:02;5.30;;;3.22;;
28483;SDS011;15704;48.834;8.736;2023-07-09T01:11:30;9.15;;;3.38;;
28483;SDS011;15704;48.834;8.736;2023-07-09T01:13:59;6.68;;;3.45;;
28483;SDS011;15704;48.834;8.736;2023-07-09T01:16:30;6.65;;;3.63;;
28483;SDS011;15704;48.834;8.736;2023-07-09T01:19:00;8.80;;;3.55;;
28483;SDS011;15704;48.834;8.736;2023-07-09T01:21:27;11.38;;;4.25;;
28483;SDS011;15704;48.834;8.736;2023-07-09T01:23:54;9.32;;;3.90;;
28483;SDS011;15704;48.834;8.736;2023-07-09T01:26:26;7.55;;;3.38;;
28483;SDS011;15704;48.834;8.736;2023-07-09T01:28:54;11.13;;;3.47;;
28483;SDS011;15704;48.834;8.736;2023-07-09T01:31:23;10.35;;;3.15;;
28483;SDS011;15704;48.834;8.736;2023-07-09T01:33:50;7.35;;;3.42;;
28483;SDS011;15704;48.834;8.736;2023-07-09T01:36:18;5.70;;;3.10;;
28483;SDS011;15704;48.834;8.736;2023-07-09T01:38:51;6.22;;;3.22;;
28483;SDS011;15704;48.834;8.736;2023-07-09T01:41:19;9.82;;;3.17;;
28483;SDS011;15704;48.834;8.736;2023-07-09T01:43:46;5.72;;;3.40;;
28483;SDS011;15704;48.834;8.736;2023-07-09T01:46:13;9.32;;;3.55;;
28483;SDS011;15704;48.834;8.736;2023-07-09T01:48:40;12.40;;;3.05;;
28483;SDS011;15704;48.834;8.736;2023-07-09T01:51:08;8.68;;;3.22;;
28483;SDS011;15704;48.834;8.736;2023-07-09T01:53:36;8.70;;;4.05;;
28483;SDS011;15704;48.834;8.736;2023-07-09T01:56:05;6.55;;;3.60;;
28483;SDS011;15704;48.834;8.736;2023-07-09T01:58:34;5.57;;;3.38;;
28483;SDS011;15704;48.834;8.736;2023-07-09T02:01:01;7.45;;;3.33;;
28483;SDS011;15704;48.834;8.736;2023-07-09T02:03:28;6.90;;;3.55;;
28483;SDS011;15704;48.834;8.736;2023-07-09T02:05:55;8.82;;;3.75;;
28483;SDS011;15704;48.834;8.736;2023-07-09T02:08:24;7.07;;;3.25;;
28483;SDS011;15704;48.834;8.736;2023-07-09T02:10:50;7.63;;;3.88;;
28483;SDS011;15704;48.834;8.736;2023-07-09T02:13:17;7.65;;;3.65;;
28483;SDS011;15704;48.834;8.736;2023-07-09T02:15:44;5.97;;;3.30;;
28483;SDS011;15704;48.834;8.736;2023-07-09T02:18:11;6.93;;;3.47;;
28483;SDS011;15704;48.834;8.736;2023-07-09T02:20:39;7.38;;;3.78;;
28483;SDS011;15704;48.834;8.736;2023-07-09T02:23:06;5.63;;;3.38;;
28483;SDS011;15704;48.834;8.736;2023-07-09T02:25:34;8.02;;;3.55;;
28483;SDS011;15704;48.834;8.736;2023-07-09T02:28:01;8.73;;;3.55;;
28483;SDS011;15704;48.834;8.736;2023-07-09T02:30:28;11.43;;;3.65;;
28483;SDS011;15704;48.834;8.736;2023-07-09T02:32:55;6.43;;;3.53;;
28483;SDS011;15704;48.834;8.736;2023-07-09T02:35:22;11.60;;;3.45;;
28483;SDS011;15704;48.834;8.736;2023-07-09T02:37:49;12.43;;;3.40;;
28483;SDS011;15704;48.834;8.736;2023-07-09T02:40:16;8.93;;;4.00;;
28483;SDS011;15704;48.834;8.736;2023-07-09T02:42:43;6.57;;;3.53;;
28483;SDS011;15704;48.834;8.736;2023-07-09T02:45:09;6.20;;;3.28;;
28483;SDS011;15704;48.834;8.736;2023-07-09T02:47:37;7.03;;;3.90;;
28483;SDS011;15704;48.834;8.736;2023-07-09T02:50:04;13.52;;;3.53;;
28483;SDS011;15704;48.834;8.736;2023-07-09T02:52:31;10.07;;;4.35;;
28483;SDS011;15704;48.834;8.736;2023-07-09T02:54:58;6.28;;;3.42;;
28483;SDS011;15704;48.834;8.736;2023-07-09T02:57:24;9.57;;;3.83;;
28483;SDS011;15704;48.834;8.736;2023-07-09T02:59:51;6.35;;;3.25;;
28483;SDS011;15704;48.834;8.736;2023-07-09T03:02:18;10.57;;;3.75;;
28483;SDS011;15704;48.834;8.736;2023-07-09T03:04:45;11.95;;;3.47;;
28483;SDS011;15704;48.834;8.736;2023-07-09T03:07:12;9.85;;;3.63;;
28483;SDS011;15704;48.834;8.736;2023-07-09T03:09:38;8.50;;;4.30;;
28483;SDS011;15704;48.834;8.736;2023-07-09T03:12:05;5.72;;;3.08;;
28483;SDS011;15704;48.834;8.736;2023-07-09T03:14:32;6.75;;;3.45;;
28483;SDS011;15704;48.834;8.736;2023-07-09T03:16:59;9.20;;;3.72;;
28483;SDS011;15704;48.834;8.736;2023-07-09T03:19:26;6.95;;;3.63;;
28483;SDS011;15704;48.834;8.736;2023-07-09T03:21:54;9.95;;;3.63;;
28483;SDS011;15704;48.834;8.736;2023-07-09T03:24:21;5.30;;;3.10;;
28483;SDS011;15704;48.834;8.736;2023-07-09T03:26:47;8.65;;;3.22;;
28483;SDS011;15704;48.834;8.736;2023-07-09T03:29:14;8.45;;;3.30;;
28483;SDS011;15704;48.834;8.736;2023-07-09T03:31:41;17.73;;;3.95;;
28483;SDS011;15704;48.834;8.736;2023-07-09T03:34:08;7.13;;;3.55;;
28483;SDS011;15704;48.834;8.736;2023-07-09T03:36:35;11.63;;;4.30;;
28483;SDS011;15704;48.834;8.736;2023-07-09T03:39:04;6.72;;;3.40;;
28483;SDS011;15704;48.834;8.736;2023-07-09T03:41:31;6.95;;;3.58;;
28483;SDS011;15704;48.834;8.736;2023-07-09T03:43:58;15.52;;;3.90;;
28483;SDS011;15704;48.834;8.736;2023-07-09T03:46:25;6.03;;;3.47;;
28483;SDS011;15704;48.834;8.736;2023-07-09T03:48:52;10.15;;;4.28;;
28483;SDS011;15704;48.834;8.736;2023-07-09T03:51:19;10.68;;;3.75;;
28483;SDS011;15704;48.834;8.736;2023-07-09T03:53:46;9.88;;;3.50;;
28483;SDS011;15704;48.834;8.736;2023-07-09T03:56:12;8.07;;;3.78;;
28483;SDS011;15704;48.834;8.736;2023-07-09T03:58:39;7.38;;;3.70;;
28483;SDS011;15704;48.834;8.736;2023-07-09T04:01:06;6.25;;;3.55;;
28483;SDS011;15704;48.834;8.736;2023-07-09T04:03:33;7.50;;;3.67;;
28483;SDS011;15704;48.834;8.736;2023-07-09T04:06:00;10.30;;;4.30;;
28483;SDS011;15704;48.834;8.736;2023-07-09T04:08:27;11.68;;;4.07;;
28483;SDS011;15704;48.834;8.736;2023-07-09T04:10:54;9.35;;;3.70;;
28483;SDS011;15704;48.834;8.736;2023-07-09T04:13:25;7.72;;;3.92;;
28483;SDS011;15704;48.834;8.736;2023-07-09T04:15:54;13.18;;;5.00;;
28483;SDS011;15704;48.834;8.736;2023-07-09T04:18:21;11.55;;;5.07;;
28483;SDS011;15704;48.834;8.736;2023-07-09T04:20:49;7.18;;;3.97;;
28483;SDS011;15704;48.834;8.736;2023-07-09T04:23:17;8.35;;;4.05;;
28483;SDS011;15704;48.834;8.736;2023-07-09T04:25:44;8.52;;;3.92;;
28483;SDS011;15704;48.834;8.736;2023-07-09T04:28:11;10.43;;;3.85;;
28483;SDS011;15704;48.834;8.736;2023-07-09T04:30:38;9.40;;;4.22;;
28483;SDS011;15704;48.834;8.736;2023-07-09T04:33:05;7.90;;;3.92;;
28483;SDS011;15704;48.834;8.736;2023-07-09T04:35:32;7.88;;;3.25;;
28483;SDS011;15704;48.834;8.736;2023-07-09T04:37:59;6.35;;;3.03;;
28483;SDS011;15704;48.834;8.736;2023-07-09T04:40:25;9.40;;;3.80;;
28483;SDS011;15704;48.834;8.736;2023-07-09T04:42:52;8.75;;;3.55;;
28483;SDS011;15704;48.834;8.736;2023-07-09T04:45:19;5.00;;;3.17;;
28483;SDS011;15704;48.834;8.736;2023-07-09T04:47:46;9.07;;;3.55;;
28483;SDS011;15704;48.834;8.736;2023-07-09T04:50:12;5.82;;;3.50;;
28483;SDS011;15704;48.834;8.736;2023-07-09T04:52:39;6.82;;;3.35;;
28483;SDS011;15704;48.834;8.736;2023-07-09T04:55:06;9.00;;;3.35;;
28483;SDS011;15704;48.834;8.736;2023-07-09T04:57:35;5.05;;;3.08;;
28483;SDS011;15704;48.834;8.736;2023-07-09T05:00:02;6.40;;;3.20;;
28483;SDS011;15704;48.834;8.736;2023-07-09T05:02:31;6.35;;;2.90;;
28483;SDS011;15704;48.834;8.736;2023-07-09T05:04:59;7.95;;;3.58;;
28483;SDS011;15704;48.834;8.736;2023-07-09T05:07:26;11.88;;;3.22;;
28483;SDS011;15704;48.834;8.736;2023-07-09T05:09:53;6.82;;;3.42;;
28483;SDS011;15704;48.834;8.736;2023-07-09T05:12:20;8.85;;;3.78;;
28483;SDS011;15704;48.834;8.736;2023-07-09T05:14:47;9.57;;;3.47;;
28483;SDS011;15704;48.834;8.736;2023-07-09T05:17:14;5.05;;;3.30;;
28483;SDS011;15704;48.834;8.736;2023-07-09T05:19:40;8.10;;;3.13;;
28483;SDS011;15704;48.834;8.736;2023-07-09T05:22:07;10.57;;;3.60;;
28483;SDS011;15704;48.834;8.736;2023-07-09T05:24:34;8.27;;;3.20;;
28483;SDS011;15704;48.834;8.736;2023-07-09T05:27:01;10.18;;;3.17;;
28483;SDS011;15704;48.834;8.736;2023-07-09T05:29:27;6.28;;;3.00;;
28483;SDS011;15704;48.834;8.736;2023-07-09T05:31:54;9.80;;;3.78;;
28483;SDS011;15704;48.834;8.736;2023-07-09T05:34:21;10.52;;;3.03;;
28483;SDS011;15704;48.834;8.736;2023-07-09T05:36:48;6.50;;;3.03;;
28483;SDS011;15704;48.834;8.736;2023-07-09T05:39:15;6.28;;;3.28;;
28483;SDS011;15704;48.834;8.736;2023-07-09T05:41:42;9.93;;;3.22;;
28483;SDS011;15704;48.834;8.736;2023-07-09T05:44:09;4.93;;;2.72;;
28483;SDS011;15704;48.834;8.736;2023-07-09T05:46:36;6.28;;;3.15;;
28483;SDS011;15704;48.834;8.736;2023-07-09T05:49:04;8.73;;;3.50;;
28483;SDS011;15704;48.834;8.736;2023-07-09T05:51:32;6.28;;;3.25;;
28483;SDS011;15704;48.834;8.736;2023-07-09T05:53:58;9.30;;;3.83;;
28483;SDS011;15704;48.834;8.736;2023-07-09T05:56:25;7.35;;;3.08;;
28483;SDS011;15704;48.834;8.736;2023-07-09T05:58:52;14.15;;;3.25;;
28483;SDS011;15704;48.834;8.736;2023-07-09T06:01:19;6.68;;;3.83;;
28483;SDS011;15704;48.834;8.736;2023-07-09T06:03:46;5.97;;;3.03;;
28483;SDS011;15704;48.834;8.736;2023-07-09T06:06:14;5.90;;;2.88;;
28483;SDS011;15704;48.834;8.736;2023-07-09T06:08:41;10.98;;;3.58;;
28483;SDS011;15704;48.834;8.736;2023-07-09T06:11:08;6.93;;;2.95;;
28483;SDS011;15704;48.834;8.736;2023-07-09T06:13:35;7.47;;;3.10;;
28483;SDS011;15704;48.834;8.736;2023-07-09T06:16:02;6.85;;;3.05;;
28483;SDS011;15704;48.834;8.736;2023-07-09T06:18:29;7.85;;;3.53;;
28483;SDS011;15704;48.834;8.736;2023-07-09T06:20:58;5.78;;;3.03;;
28483;SDS011;15704;48.834;8.736;2023-07-09T06:23:27;8.75;;;3.05;;
28483;SDS011;15704;48.834;8.736;2023-07-09T06:25:54;5.05;;;2.67;;
28483;SDS011;15704;48.834;8.736;2023-07-09T06:28:22;8.95;;;3.42;;
28483;SDS011;15704;48.834;8.736;2023-07-09T06:30:50;9.88;;;3.28;;
28483;SDS011;15704;48.834;8.736;2023-07-09T06:33:18;6.60;;;3.40;;
28483;SDS011;15704;48.834;8.736;2023-07-09T06:35:49;4.50;;;2.95;;
28483;SDS011;15704;48.834;8.736;2023-07-09T06:38:17;7.70;;;3.08;;
28483;SDS011;15704;48.834;8.736;2023-07-09T06:40:45;4.72;;;2.90;;
28483;SDS011;15704;48.834;8.736;2023-07-09T06:43:12;13.40;;;3.33;;
28483;SDS011;15704;48.834;8.736;2023-07-09T06:45:47;9.90;;;2.92;;
28483;SDS011;15704;48.834;8.736;2023-07-09T06:48:18;4.80;;;2.90;;
28483;SDS011;15704;48.834;8.736;2023-07-09T06:50:46;5.32;;;3.03;;
28483;SDS011;15704;48.834;8.736;2023-07-09T06:53:13;7.63;;;3.08;;
28483;SDS011;15704;48.834;8.736;2023-07-09T06:55:40;5.80;;;3.10;;
28483;SDS011;15704;48.834;8.736;2023-07-09T06:58:08;7.07;;;3.17;;
28483;SDS011;15704;48.834;8.736;2023-07-09T07:00:37;8.93;;;3.42;;
28483;SDS011;15704;48.834;8.736;2023-07-09T07:03:05;4.97;;;3.00;;
28483;SDS011;15704;48.834;8.736;2023-07-09T07:05:32;5.13;;;2.90;;
28483;SDS011;15704;48.834;8.736;2023-07-09T07:07:59;9.20;;;2.95;;
28483;SDS011;15704;48.834;8.736;2023-07-09T07:10:27;6.95;;;3.75;;
28483;SDS011;15704;48.834;8.736;2023-07-09T07:12:54;4.72;;;3.05;;
28483;SDS011;15704;48.834;8.736;2023-07-09T07:15:21;5.90;;;3.00;;
28483;SDS011;15704;48.834;8.736;2023-07-09T07:17:48;5.55;;;3.13;;
28483;SDS011;15704;48.834;8.736;2023-07-09T07:20:15;5.38;;;3.05;;
28483;SDS011;15704;48.834;8.736;2023-07-09T07:22:43;11.05;;;3.53;;
28483;SDS011;15704;48.834;8.736;2023-07-09T07:25:09;9.23;;;3.38;;
28483;SDS011;15704;48.834;8.736;2023-07-09T07:27:37;4.57;;;3.03;;
28483;SDS011;15704;48.834;8.736;2023-07-09T07:30:04;8.25;;;3.10;;
28483;SDS011;15704;48.834;8.736;2023-07-09T07:32:36;10.17;;;3.23;;
28483;SDS011;15704;48.834;8.736;2023-07-09T07:35:04;6.28;;;3.10;;
28483;SDS011;15704;48.834;8.736;2023-07-09T07:37:31;5.65;;;3.17;;
28483;SDS011;15704;48.834;8.736;2023-07-09T07:39:58;8.02;;;3.28;;
28483;SDS011;15704;48.834;8.736;2023-07-09T07:42:25;10.00;;;3.45;;
28483;SDS011;15704;48.834;8.736;2023-07-09T07:44:52;6.55;;;3.03;;
28483;SDS011;15704;48.834;8.736;2023-07-09T07:47:19;6.00;;;3.17;;
28483;SDS011;15704;48.834;8.736;2023-07-09T07:49:46;6.43;;;2.88;;
28483;SDS011;15704;48.834;8.736;2023-07-09T07:52:12;8.30;;;3.15;;
28483;SDS011;15704;48.834;8.736;2023-07-09T07:54:40;9.27;;;3.30;;
28483;SDS011;15704;48.834;8.736;2023-07-09T07:57:06;9.63;;;3.10;;
28483;SDS011;15704;48.834;8.736;2023-07-09T07:59:35;8.00;;;3.53;;
28483;SDS011;15704;48.834;8.736;2023-07-09T08:02:03;7.03;;;2.90;;
28483;SDS011;15704;48.834;8.736;2023-07-09T08:04:32;7.03;;;2.90;;
28483;SDS011;15704;48.834;8.736;2023-07-09T08:06:59;8.55;;;3.58;;
28483;SDS011;15704;48.834;8.736;2023-07-09T08:09:25;7.35;;;3.08;;
28483;SDS011;15704;48.834;8.736;2023-07-09T08:11:52;4.85;;;2.70;;
28483;SDS011;15704;48.834;8.736;2023-07-09T08:14:19;8.23;;;3.25;;
28483;SDS011;15704;48.834;8.736;2023-07-09T08:16:46;8.63;;;3.22;;
28483;SDS011;15704;48.834;8.736;2023-07-09T08:19:19;5.75;;;3.20;;
28483;SDS011;15704;48.834;8.736;2023-07-09T08:21:46;6.30;;;3.40;;
28483;SDS011;15704;48.834;8.736;2023-07-09T08:24:13;7.82;;;3.17;;
28483;SDS011;15704;48.834;8.736;2023-07-09T08:26:43;6.00;;;2.97;;
28483;SDS011;15704;48.834;8.736;2023-07-09T08:29:09;4.90;;;2.90;;
28483;SDS011;15704;48.834;8.736;2023-07-09T08:31:36;8.48;;;3.33;;
28483;SDS011;15704;48.834;8.736;2023-07-09T08:34:04;9.15;;;3.10;;
28483;SDS011;15704;48.834;8.736;2023-07-09T08:36:32;6.13;;;3.55;;
28483;SDS011;15704;48.834;8.736;2023-07-09T08:39:02;6.32;;;3.22;;
28483;SDS011;15704;48.834;8.736;2023-07-09T08:49:19;6.82;;;3.20;;
28483;SDS011;15704;48.834;8.736;2023-07-09T08:51:49;9.32;;;3.28;;
28483;SDS011;15704;48.834;8.736;2023-07-09T08:54:21;7.82;;;3.33;;
28483;SDS011;15704;48.834;8.736;2023-07-09T08:56:55;8.52;;;2.53;;
28483;SDS011;15704;48.834;8.736;2023-07-09T09:01:53;9.63;;;3.17;;
28483;SDS011;15704;48.834;8.736;2023-07-09T09:04:28;8.55;;;3.20;;
28483;SDS011;15704;48.834;8.736;2023-07-09T09:07:00;3.85;;;2.50;;
28483;SDS011;15704;48.834;8.736;2023-07-09T09:09:38;5.97;;;3.25;;
28483;SDS011;15704;48.834;8.736;2023-07-09T09:12:19;7.18;;;2.72;;
28483;SDS011;15704;48.834;8.736;2023-07-09T09:15:00;5.95;;;2.80;;
28483;SDS011;15704;48.834;8.736;2023-07-09T09:17:35;10.43;;;3.00;;
28483;SDS011;15704;48.834;8.736;2023-07-09T09:20:08;9.00;;;2.80;;
28483;SDS011;15704;48.834;8.736;2023-07-09T09:25:16;7.68;;;3.10;;
28483;SDS011;15704;48.834;8.736;2023-07-09T09:27:50;6.93;;;2.92;;
28483;SDS011;15704;48.834;8.736;2023-07-09T09:30:19;7.40;;;2.97;;
28483;SDS011;15704;48.834;8.736;2023-07-09T09:33:00;6.43;;;2.58;;
28483;SDS011;15704;48.834;8.736;2023-07-09T09:35:32;4.38;;;2.58;;
28483;SDS011;15704;48.834;8.736;2023-07-09T09:38:01;5.22;;;3.05;;
28483;SDS011;15704;48.834;8.736;2023-07-09T09:40:29;4.90;;;2.70;;
28483;SDS011;15704;48.834;8.736;2023-07-09T09:43:01;10.40;;;3.13;;
28483;SDS011;15704;48.834;8.736;2023-07-09T09:45:32;12.32;;;3.15;;
28483;SDS011;15704;48.834;8.736;2023-07-09T09:48:03;8.45;;;2.97;;
28483;SDS011;15704;48.834;8.736;2023-07-09T09:50:45;13.27;;;3.03;;
28483;SDS011;15704;48.834;8.736;2023-07-09T09:53:18;8.57;;;3.75;;
28483;SDS011;15704;48.834;8.736;2023-07-09T09:55:53;6.97;;;2.92;;
28483;SDS011;15704;48.834;8.736;2023-07-09T09:58:29;6.22;;;2.63;;
28483;SDS011;15704;48.834;8.736;2023-07-09T10:00:57;8.23;;;3.00;;
28483;SDS011;15704;48.834;8.736;2023-07-09T10:03:32;7.65;;;3.00;;
28483;SDS011;15704;48.834;8.736;2023-07-09T10:06:06;6.82;;;2.97;;
28483;SDS011;15704;48.834;8.736;2023-07-09T10:11:44;4.72;;;2.58;;
28483;SDS011;15704;48.834;8.736;2023-07-09T10:16:51;3.58;;;2.25;;
28483;SDS011;15704;48.834;8.736;2023-07-09T10:19:28;4.35;;;2.67;;
28483;SDS011;15704;48.834;8.736;2023-07-09T10:22:16;5.45;;;2.80;;
28483;SDS011;15704;48.834;8.736;2023-07-09T10:30:47;5.05;;;2.97;;
28483;SDS011;15704;48.834;8.736;2023-07-09T10:33:27;6.50;;;2.70;;
28483;SDS011;15704;48.834;8.736;2023-07-09T10:41:31;5.97;;;2.30;;
28483;SDS011;15704;48.834;8.736;2023-07-09T10:44:04;6.63;;;3.08;;
28483;SDS011;15704;48.834;8.736;2023-07-09T10:46:37;10.73;;;2.80;;
28483;SDS011;15704;48.834;8.736;2023-07-09T10:49:09;5.72;;;2.55;;
28483;SDS011;15704;48.834;8.736;2023-07-09T10:51:39;9.00;;;2.53;;
28483;SDS011;15704;48.834;8.736;2023-07-09T10:54:24;8.48;;;3.10;;
28483;SDS011;15704;48.834;8.736;2023-07-09T10:57:00;5.72;;;2.53;;
28483;SDS011;15704;48.834;8.736;2023-07-09T10:59:55;4.93;;;2.67;;
28483;SDS011;15704;48.834;8.736;2023-07-09T11:02:25;6.50;;;2.70;;
28483;SDS011;15704;48.834;8.736;2023-07-09T11:05:02;7.03;;;2.50;;
28483;SDS011;15704;48.834;8.736;2023-07-09T11:07:32;5.75;;;2.60;;
28483;SDS011;15704;48.834;8.736;2023-07-09T11:10:05;5.78;;;2.72;;
28483;SDS011;15704;48.834;8.736;2023-07-09T11:12:54;5.07;;;2.47;;
28483;SDS011;15704;48.834;8.736;2023-07-09T11:15:29;4.35;;;2.40;;
28483;SDS011;15704;48.834;8.736;2023-07-09T11:18:06;5.45;;;2.50;;
28483;SDS011;15704;48.834;8.736;2023-07-09T11:20:42;4.70;;;2.50;;
28483;SDS011;15704;48.834;8.736;2023-07-09T11:23:18;11.57;;;2.40;;
28483;SDS011;15704;48.834;8.736;2023-07-09T11:25:46;6.05;;;2.85;;
28483;SDS011;15704;48.834;8.736;2023-07-09T11:28:34;6.85;;;2.63;;
28483;SDS011;15704;48.834;8.736;2023-07-09T11:31:06;7.50;;;2.70;;
28483;SDS011;15704;48.834;8.736;2023-07-09T11:34:02;5.80;;;2.42;;
28483;SDS011;15704;48.834;8.736;2023-07-09T11:36:34;7.32;;;2.75;;
28483;SDS011;15704;48.834;8.736;2023-07-09T11:39:18;5.63;;;2.90;;
28483;SDS011;15704;48.834;8.736;2023-07-09T11:41:46;6.93;;;2.70;;
28483;SDS011;15704;48.834;8.736;2023-07-09T11:44:26;5.00;;;2.67;;
28483;SDS011;15704;48.834;8.736;2023-07-09T11:47:13;5.95;;;2.92;;
28483;SDS011;15704;48.834;8.736;2023-07-09T11:52:28;5.07;;;2.85;;
28483;SDS011;15704;48.834;8.736;2023-07-09T11:57:52;4.88;;;2.92;;
28483;SDS011;15704;48.834;8.736;2023-07-09T12:00:30;7.22;;;3.13;;
28483;SDS011;15704;48.834;8.736;2023-07-09T12:03:05;5.20;;;2.55;;
28483;SDS011;15704;48.834;8.736;2023-07-09T12:05:33;7.47;;;2.78;;
28483;SDS011;15704;48.834;8.736;2023-07-09T12:08:01;6.28;;;2.90;;
28483;SDS011;15704;48.834;8.736;2023-07-09T12:10:28;8.70;;;2.63;;
28483;SDS011;15704;48.834;8.736;2023-07-09T12:12:59;5.75;;;2.50;;
28483;SDS011;15704;48.834;8.736;2023-07-09T12:15:27;7.13;;;2.67;;
28483;SDS011;15704;48.834;8.736;2023-07-09T12:18:00;10.10;;;2.80;;
28483;SDS011;15704;48.834;8.736;2023-07-09T12:20:29;6.25;;;2.75;;
28483;SDS011;15704;48.834;8.736;2023-07-09T12:22:58;10.30;;;3.13;;
28483;SDS011;15704;48.834;8.736;2023-07-09T12:25:25;4.95;;;2.70;;
28483;SDS011;15704;48.834;8.736;2023-07-09T12:27:57;8.48;;;2.42;;
28483;SDS011;15704;48.834;8.736;2023-07-09T12:30:24;6.18;;;2.60;;
28483;SDS011;15704;48.834;8.736;2023-07-09T12:32:51;7.78;;;2.78;;
28483;SDS011;15704;48.834;8.736;2023-07-09T12:35:18;5.47;;;1.98;;
28483;SDS011;15704;48.834;8.736;2023-07-09T12:37:46;7.75;;;2.78;;
28483;SDS011;15704;48.834;8.736;2023-07-09T12:40:18;8.48;;;2.50;;
28483;SDS011;15704;48.834;8.736;2023-07-09T12:42:48;6.93;;;2.60;;
28483;SDS011;15704;48.834;8.736;2023-07-09T12:45:16;5.28;;;2.38;;
28483;SDS011;15704;48.834;8.736;2023-07-09T12:47:46;7.28;;;2.47;;
28483;SDS011;15704;48.834;8.736;2023-07-09T12:52:48;10.20;;;3.00;;
28483;SDS011;15704;48.834;8.736;2023-07-09T12:55:19;4.70;;;2.28;;
28483;SDS011;15704;48.834;8.736;2023-07-09T12:57:48;5.32;;;2.47;;
28483;SDS011;15704;48.834;8.736;2023-07-09T13:00:16;10.68;;;2.47;;
28483;SDS011;15704;48.834;8.736;2023-07-09T13:02:43;4.38;;;2.53;;
28483;SDS011;15704;48.834;8.736;2023-07-09T13:05:18;6.45;;;2.45;;
28483;SDS011;15704;48.834;8.736;2023-07-09T13:08:11;7.60;;;2.85;;
28483;SDS011;15704;48.834;8.736;2023-07-09T13:10:40;10.20;;;2.30;;
28483;SDS011;15704;48.834;8.736;2023-07-09T13:13:11;9.15;;;2.65;;
28483;SDS011;15704;48.834;8.736;2023-07-09T13:15:40;6.82;;;2.67;;
28483;SDS011;15704;48.834;8.736;2023-07-09T13:18:10;5.38;;;2.45;;
28483;SDS011;15704;48.834;8.736;2023-07-09T13:20:39;9.35;;;2.88;;
28483;SDS011;15704;48.834;8.736;2023-07-09T13:23:16;6.85;;;2.42;;
28483;SDS011;15704;48.834;8.736;2023-07-09T13:25:45;3.83;;;2.50;;
28483;SDS011;15704;48.834;8.736;2023-07-09T13:28:18;5.25;;;2.72;;
28483;SDS011;15704;48.834;8.736;2023-07-09T13:30:47;6.10;;;2.42;;
28483;SDS011;15704;48.834;8.736;2023-07-09T13:33:16;8.57;;;2.72;;
28483;SDS011;15704;48.834;8.736;2023-07-09T13:35:44;6.53;;;2.30;;
28483;SDS011;15704;48.834;8.736;2023-07-09T13:38:13;4.72;;;2.88;;
28483;SDS011;15704;48.834;8.736;2023-07-09T13:40:42;5.55;;;2.42;;
28483;SDS011;15704;48.834;8.736;2023-07-09T13:43:13;6.68;;;2.55;;
28483;SDS011;15704;48.834;8.736;2023-07-09T13:45:41;5.40;;;2.67;;
28483;SDS011;15704;48.834;8.736;2023-07-09T13:48:15;6.18;;;2.40;;
28483;SDS011;15704;48.834;8.736;2023-07-09T13:50:44;6.80;;;2.67;;
28483;SDS011;15704;48.834;8.736;2023-07-09T13:53:14;4.72;;;2.13;;
28483;SDS011;15704;48.834;8.736;2023-07-09T13:55:42;8.68;;;2.67;;
28483;SDS011;15704;48.834;8.736;2023-07-09T13:58:10;4.80;;;2.65;;
28483;SDS011;15704;48.834;8.736;2023-07-09T14:00:39;6.72;;;2.33;;
28483;SDS011;15704;48.834;8.736;2023-07-09T14:03:10;8.30;;;2.78;;
28483;SDS011;15704;48.834;8.736;2023-07-09T14:05:45;6.40;;;2.67;;
28483;SDS011;15704;48.834;8.736;2023-07-09T14:08:12;9.10;;;2.50;;
28483;SDS011;15704;48.834;8.736;2023-07-09T14:10:41;5.82;;;2.03;;
28483;SDS011;15704;48.834;8.736;2023-07-09T14:13:10;6.28;;;2.63;;
28483;SDS011;15704;48.834;8.736;2023-07-09T14:15:40;3.40;;;2.40;;
28483;SDS011;15704;48.834;8.736;2023-07-09T14:18:13;5.20;;;2.28;;
28483;SDS011;15704;48.834;8.736;2023-07-09T14:20:43;5.45;;;2.13;;
28483;SDS011;15704;48.834;8.736;2023-07-09T14:23:10;4.30;;;2.25;;
28483;SDS011;15704;48.834;8.736;2023-07-09T14:25:39;6.07;;;2.45;;
28483;SDS011;15704;48.834;8.736;2023-07-09T14:28:08;4.57;;;2.13;;
28483;SDS011;15704;48.834;8.736;2023-07-09T14:30:38;3.13;;;2.10;;
28483;SDS011;15704;48.834;8.736;2023-07-09T14:33:07;5.55;;;2.67;;
28483;SDS011;15704;48.834;8.736;2023-07-09T14:35:40;5.80;;;2.53;;
28483;SDS011;15704;48.834;8.736;2023-07-09T14:38:14;6.15;;;2.15;;
28483;SDS011;15704;48.834;8.736;2023-07-09T14:40:52;4.57;;;2.47;;
28483;SDS011;15704;48.834;8.736;2023-07-09T14:43:21;15.00;;;3.10;;
28483;SDS011;15704;48.834;8.736;2023-07-09T14:45:48;8.63;;;2.80;;
28483;SDS011;15704;48.834;8.736;2023-07-09T14:48:16;8.68;;;2.58;;
28483;SDS011;15704;48.834;8.736;2023-07-09T14:50:44;6.95;;;2.88;;
28483;SDS011;15704;48.834;8.736;2023-07-09T14:53:17;4.32;;;2.10;;
28483;SDS011;15704;48.834;8.736;2023-07-09T14:55:53;3.78;;;2.20;;
28483;SDS011;15704;48.834;8.736;2023-07-09T14:58:21;5.95;;;2.35;;
28483;SDS011;15704;48.834;8.736;2023-07-09T15:00:49;3.85;;;2.22;;
28483;SDS011;15704;48.834;8.736;2023-07-09T15:03:23;4.22;;;2.33;;
28483;SDS011;15704;48.834;8.736;2023-07-09T15:05:52;5.55;;;2.08;;
28483;SDS011;15704;48.834;8.736;2023-07-09T15:08:21;6.07;;;2.22;;
28483;SDS011;15704;48.834;8.736;2023-07-09T15:10:50;5.22;;;2.78;;
28483;SDS011;15704;48.834;8.736;2023-07-09T15:13:34;6.13;;;2.70;;
28483;SDS011;15704;48.834;8.736;2023-07-09T15:16:03;4.63;;;2.60;;
28483;SDS011;15704;48.834;8.736;2023-07-09T15:18:30;5.28;;;2.60;;
28483;SDS011;15704;48.834;8.736;2023-07-09T15:21:00;4.45;;;2.47;;
28483;SDS011;15704;48.834;8.736;2023-07-09T15:23:29;6.70;;;2.92;;
28483;SDS011;15704;48.834;8.736;2023-07-09T15:25:56;7.25;;;2.60;;
28483;SDS011;15704;48.834;8.736;2023-07-09T15:28:24;6.43;;;2.58;;
28483;SDS011;15704;48.834;8.736;2023-07-09T15:30:51;8.60;;;2.70;;
28483;SDS011;15704;48.834;8.736;2023-07-09T15:33:18;6.75;;;2.88;;
28483;SDS011;15704;48.834;8.736;2023-07-09T15:35:46;6.85;;;2.20;;
28483;SDS011;15704;48.834;8.736;2023-07-09T15:40:48;10.60;;;2.67;;
28483;SDS011;15704;48.834;8.736;2023-07-09T15:43:15;7.55;;;2.58;;
28483;SDS011;15704;48.834;8.736;2023-07-09T15:45:45;6.28;;;2.70;;
28483;SDS011;15704;48.834;8.736;2023-07-09T15:51:00;3.38;;;2.38;;